createdAt,value
2018-10-11T16:00:48.141Z,6.60
2018-10-11T16:03:16.359Z,6.80
2018-10-11T16:05:44.637Z,6.50
2018-10-11T16:08:12.721Z,5.47
2018-10-11T16:10:41.630Z,6.27
2018-10-11T16:13:09.815Z,7.30
2018-10-11T16:15:37.944Z,6.70
2018-10-11T16:18:06.121Z,6.53
2018-10-11T16:20:34.338Z,6.43
2018-10-11T16:23:02.497Z,5.83
2018-10-11T16:25:30.657Z,7.20
2018-10-11T16:27:58.799Z,6.10
2018-10-11T16:30:26.953Z,6.10
2018-10-11T16:32:55.093Z,7.40
2018-10-11T16:35:23.307Z,6.87
2018-10-11T16:37:51.482Z,5.93
2018-10-11T16:40:19.616Z,5.83
2018-10-11T16:42:47.803Z,6.53
2018-10-11T16:45:15.928Z,6.07
2018-10-11T16:47:44.072Z,6.50
2018-10-11T16:50:12.332Z,7.83
2018-10-11T16:52:41.208Z,7.10
2018-10-11T16:55:09.360Z,6.20
2018-10-11T16:57:37.496Z,7.40
2018-10-11T17:00:06.115Z,10.20
2018-10-11T17:02:34.296Z,11.07
2018-10-11T17:05:02.443Z,9.90
2018-10-11T17:07:30.610Z,9.13
2018-10-11T17:09:58.786Z,9.80
2018-10-11T17:12:26.935Z,8.80
2018-10-11T17:14:55.084Z,8.53
2018-10-11T17:17:23.236Z,8.70
2018-10-11T17:19:51.415Z,8.40
2018-10-11T17:22:19.584Z,7.80
2018-10-11T17:24:47.739Z,8.30
2018-10-11T17:27:15.892Z,8.10
2018-10-11T17:29:44.184Z,8.57
2018-10-11T17:32:12.253Z,8.70
2018-10-11T17:34:40.421Z,8.30
2018-10-11T17:37:08.580Z,9.17
2018-10-11T17:39:36.756Z,9.20
2018-10-11T17:42:04.961Z,9.80
2018-10-11T17:44:33.068Z,10.57
2018-10-11T17:47:01.274Z,11.27
2018-10-11T17:49:29.456Z,11.03
2018-10-11T17:51:57.613Z,10.47
2018-10-11T17:54:25.768Z,11.17
2018-10-11T17:56:53.966Z,10.03
2018-10-11T17:59:22.135Z,11.17
2018-10-11T18:01:50.314Z,10.43
2018-10-11T18:04:18.492Z,11.57
2018-10-11T18:06:46.655Z,10.47
2018-10-11T18:09:14.815Z,11.73
2018-10-11T18:11:42.956Z,11.43
2018-10-11T18:14:11.908Z,11.37
2018-10-11T18:16:40.072Z,12.10
2018-10-11T18:19:08.576Z,10.60
2018-10-11T18:21:36.805Z,10.93
2018-10-11T18:24:04.895Z,10.40
2018-10-11T18:26:33.033Z,11.60
2018-10-11T18:29:01.213Z,11.13
2018-10-11T18:31:29.337Z,11.27
2018-10-11T18:33:57.488Z,12.13
2018-10-11T18:36:25.633Z,11.10
2018-10-11T18:38:53.817Z,11.70
2018-10-11T18:41:22.212Z,11.43
2018-10-11T18:43:50.400Z,10.03
2018-10-11T18:46:18.969Z,11.77
2018-10-11T18:48:47.118Z,11.00
2018-10-11T18:51:15.760Z,11.87
2018-10-11T18:53:44.252Z,11.50
2018-10-11T18:56:14.611Z,12.70
2018-10-11T18:58:52.060Z,10.87
2018-10-11T19:01:20.485Z,12.00
2018-10-11T19:03:53.265Z,11.50
2018-10-11T19:06:21.706Z,10.63
2018-10-11T19:08:51.019Z,11.33
2018-10-11T19:11:19.194Z,11.00
2018-10-11T19:13:47.410Z,11.43
2018-10-11T19:16:15.596Z,11.27
2018-10-11T19:18:43.776Z,11.07
2018-10-11T19:21:12.062Z,12.07
2018-10-11T19:23:46.990Z,11.23
2018-10-11T19:26:15.146Z,11.30
2018-10-11T19:28:43.336Z,11.40
2018-10-11T19:31:11.577Z,10.37
2018-10-11T19:33:39.749Z,11.10
2018-10-11T19:36:08.362Z,11.13
2018-10-11T19:38:36.643Z,11.13
2018-10-11T19:41:04.858Z,12.43
2018-10-11T19:43:32.992Z,11.07
2018-10-11T19:46:01.152Z,12.70
2018-10-11T19:48:29.323Z,12.67
2018-10-11T19:50:57.453Z,11.90
2018-10-11T19:53:25.627Z,12.37
2018-10-11T19:55:53.848Z,11.73
2018-10-11T19:58:22.413Z,13.27
2018-10-11T20:00:50.598Z,13.20
2018-10-11T20:03:18.768Z,12.40
2018-10-11T20:05:46.941Z,11.23
2018-10-11T20:08:15.180Z,12.50
2018-10-11T20:10:43.271Z,11.93
2018-10-11T20:13:11.439Z,12.57
2018-10-11T20:15:39.579Z,13.03
2018-10-11T20:18:07.755Z,12.20
2018-10-11T20:20:35.947Z,13.70
2018-10-11T20:23:04.159Z,12.40
2018-10-11T20:25:32.313Z,12.47
2018-10-11T20:28:00.468Z,13.43
2018-10-11T20:30:28.658Z,12.47
2018-10-11T20:32:57.061Z,13.13
2018-10-11T20:35:25.243Z,14.03
2018-10-11T20:37:53.417Z,12.83
2018-10-11T20:40:21.576Z,12.80
2018-10-11T20:42:49.744Z,12.33
2018-10-11T20:45:17.900Z,13.20
2018-10-11T20:47:46.036Z,13.57
2018-10-11T20:50:14.211Z,14.27
2018-10-11T20:52:42.346Z,16.23
2018-10-11T20:55:10.484Z,13.57
2018-10-11T20:57:38.655Z,14.47
2018-10-11T21:00:07.488Z,14.03
2018-10-11T21:02:35.635Z,13.23
2018-10-11T21:05:03.785Z,13.90
2018-10-11T21:07:31.951Z,14.87
2018-10-11T21:10:00.085Z,12.87
2018-10-11T21:12:28.236Z,13.60
2018-10-11T21:14:56.669Z,14.80
2018-10-11T21:17:24.824Z,13.30
2018-10-11T21:19:52.989Z,14.43
2018-10-11T21:22:21.153Z,13.20
2018-10-11T21:24:49.328Z,13.03
2018-10-11T21:27:17.740Z,12.50
2018-10-11T21:29:45.908Z,13.10
2018-10-11T21:32:14.060Z,11.97
2018-10-11T21:34:42.226Z,12.53
2018-10-11T21:37:10.386Z,13.30
2018-10-11T21:39:38.553Z,12.87
2018-10-11T21:42:06.744Z,14.00
2018-10-11T21:44:34.920Z,12.87
2018-10-11T21:47:03.064Z,13.40
2018-10-11T21:49:31.216Z,13.47
2018-10-11T21:51:59.360Z,13.20
2018-10-11T21:54:27.510Z,12.73
2018-10-11T21:56:55.659Z,12.63
2018-10-11T21:59:23.799Z,14.10
